Time;durP1;ratioP1;P1;durP2;ratioP2;P2;SDS_P1;SDS_P2;PMS_P1;PMS_P2;Temp;Humidity;BMP_temperature;BMP_pressure;BME280_temperature;BME280_humidity;BME280_pressure;Samples;Min_cycle;Max_cycle;Signal;HPM_P1;HPM_P2
2021/01/12 00:00:11;;;;;;;;;;;4.30;68.20;;;;;;4953274;28;118404;-80
2021/01/12 00:02:36;;;;;;;;;;;4.30;68.20;;;;;;4955393;28;117300;-80
2021/01/12 00:05:02;;;;;;;;;;;4.30;68.10;;;;;;4955398;28;117370;-80
2021/01/12 00:07:28;;;;;;;;;;;4.30;68.10;;;;;;4954318;28;118901;-80
2021/01/12 00:09:53;;;;;;;;;;;4.30;68.20;;;;;;4954758;28;118578;-80
2021/01/12 00:12:19;;;;;;;;;;;4.30;68.20;;;;;;4955216;28;117553;-80
2021/01/12 00:14:47;;;;;;;;;;;4.30;68.20;;;;;;4954980;28;117522;-80
2021/01/12 00:17:13;;;;;;;;;;;4.30;68.30;;;;;;4953795;28;119560;-80
2021/01/12 00:19:39;;;;;;;;;;;4.40;68.30;;;;;;4953763;28;117365;-80
2021/01/12 00:22:07;;;;;;;;;;;4.40;68.40;;;;;;4955521;28;117574;-80
2021/01/12 00:24:33;;;;;;;;;;;4.40;68.40;;;;;;4956434;28;117923;-80
2021/01/12 00:26:59;;;;;;;;;;;4.40;68.40;;;;;;4954507;28;117585;-80
2021/01/12 00:29:24;;;;;;;;;;;4.40;68.40;;;;;;4955217;28;118697;-81
2021/01/12 00:31:50;;;;;;;;;;;4.40;68.40;;;;;;4956308;28;117540;-80
2021/01/12 00:34:15;;;;;;;;;;;4.40;68.70;;;;;;4956155;28;117883;-80
2021/01/12 00:36:48;;;;;;;;;;;4.40;68.40;;;;;;4971195;28;118799;-81
2021/01/12 00:39:13;;;;;;;;;;;4.40;68.40;;;;;;4955496;28;118407;-80
2021/01/12 00:41:39;;;;;;;;;;;4.40;68.50;;;;;;4956673;28;117882;-80
2021/01/12 00:44:04;;;;;;;;;;;4.40;68.50;;;;;;4956416;28;117975;-80
2021/01/12 00:46:30;;;;;;;;;;;4.40;68.40;;;;;;4955728;28;118377;-80
2021/01/12 00:48:56;;;;;;;;;;;4.40;68.40;;;;;;4955666;28;119164;-81
2021/01/12 00:51:30;;;;;;;;;;;4.40;68.40;;;;;;4957515;28;117430;-80
2021/01/12 00:53:56;;;;;;;;;;;4.40;68.50;;;;;;4958201;28;117557;-80
2021/01/12 00:56:21;;;;;;;;;;;4.40;68.50;;;;;;4956689;28;117551;-80
2021/01/12 00:58:47;;;;;;;;;;;4.40;68.50;;;;;;4956732;28;117962;-80
2021/01/12 01:01:12;;;;;;;;;;;4.40;68.50;;;;;;4958173;28;117484;-81
2021/01/12 01:03:38;;;;;;;;;;;4.40;68.50;;;;;;4958561;28;117264;-80
2021/01/12 01:06:07;;;;;;;;;;;4.40;68.60;;;;;;4955729;28;117304;-80
2021/01/12 01:08:32;;;;;;;;;;;4.40;68.60;;;;;;4952790;28;120140;-80
2021/01/12 01:10:58;;;;;;;;;;;4.40;68.50;;;;;;4953584;28;117733;-80
2021/01/12 01:13:23;;;;;;;;;;;4.40;68.50;;;;;;4954387;28;117426;-80
2021/01/12 01:15:49;;;;;;;;;;;4.40;68.60;;;;;;4953305;28;118717;-80
2021/01/12 01:18:14;;;;;;;;;;;4.40;68.60;;;;;;4953096;28;117789;-80
2021/01/12 01:20:40;;;;;;;;;;;4.40;68.50;;;;;;4953733;28;117737;-80
2021/01/12 01:23:05;;;;;;;;;;;4.40;68.60;;;;;;4954432;28;117448;-80
2021/01/12 01:25:31;;;;;;;;;;;4.40;68.50;;;;;;4953429;28;119913;-80
2021/01/12 01:27:56;;;;;;;;;;;4.40;68.60;;;;;;4970032;28;117538;-80
2021/01/12 01:30:22;;;;;;;;;;;4.40;69.20;;;;;;4954045;28;117586;-80
2021/01/12 01:32:47;;;;;;;;;;;4.40;68.60;;;;;;4954002;28;117856;-80
2021/01/12 01:35:13;;;;;;;;;;;4.40;68.60;;;;;;4954086;28;117438;-80
2021/01/12 01:37:38;;;;;;;;;;;4.40;68.60;;;;;;4953287;28;118446;-80
2021/01/12 01:40:05;;;;;;;;;;;4.40;68.60;;;;;;4971295;28;117515;-80
2021/01/12 01:42:30;;;;;;;;;;;4.40;68.60;;;;;;4955146;28;117894;-80
2021/01/12 01:44:56;;;;;;;;;;;4.40;68.60;;;;;;4953792;28;120739;-80
2021/01/12 01:47:22;;;;;;;;;;;4.40;68.60;;;;;;4954030;28;117378;-80
2021/01/12 01:49:47;;;;;;;;;;;4.40;68.60;;;;;;4972340;28;117736;-80
2021/01/12 01:52:13;;;;;;;;;;;4.40;68.50;;;;;;4972315;28;117791;-80
2021/01/12 01:54:38;;;;;;;;;;;4.40;68.60;;;;;;4954445;28;117454;-80
2021/01/12 01:57:04;;;;;;;;;;;4.40;68.60;;;;;;4953986;28;117757;-80
2021/01/12 01:59:30;;;;;;;;;;;4.30;68.50;;;;;;4956769;28;117672;-80
2021/01/12 02:01:55;;;;;;;;;;;4.40;68.60;;;;;;4959822;28;117799;-80
2021/01/12 02:04:27;;;;;;;;;;;4.40;68.60;;;;;;4958345;28;120745;-80
2021/01/12 02:06:53;;;;;;;;;;;4.40;68.60;;;;;;4959145;28;117517;-80
2021/01/12 02:09:27;;;;;;;;;;;4.40;68.60;;;;;;4959865;28;117416;-80
2021/01/12 02:11:53;;;;;;;;;;;4.40;68.60;;;;;;4960232;28;117875;-80
2021/01/12 02:14:18;;;;;;;;;;;4.40;68.60;;;;;;4959376;28;117652;-80
2021/01/12 02:16:47;;;;;;;;;;;4.40;68.60;;;;;;4959364;28;118241;-80
2021/01/12 02:19:19;;;;;;;;;;;4.40;68.60;;;;;;4960985;28;117497;-80
2021/01/12 02:21:49;;;;;;;;;;;4.40;68.70;;;;;;4973616;28;118134;-80
2021/01/12 02:24:14;;;;;;;;;;;4.40;68.70;;;;;;4955495;28;120524;-80
2021/01/12 02:26:40;;;;;;;;;;;4.40;68.70;;;;;;4971493;28;117594;-80
2021/01/12 02:29:06;;;;;;;;;;;4.40;68.70;;;;;;4972625;28;117639;-80
2021/01/12 02:31:31;;;;;;;;;;;4.40;68.70;;;;;;4973248;28;117412;-80
2021/01/12 02:33:58;;;;;;;;;;;4.40;68.70;;;;;;4972409;28;118713;-80
2021/01/12 02:36:23;;;;;;;;;;;4.40;68.70;;;;;;4971776;28;117711;-80
2021/01/12 02:38:49;;;;;;;;;;;4.40;68.70;;;;;;4956960;28;117325;-80
2021/01/12 02:41:15;;;;;;;;;;;4.40;68.70;;;;;;4957207;28;117421;-80
2021/01/12 02:43:41;;;;;;;;;;;4.40;68.70;;;;;;4972071;28;117549;-80
2021/01/12 02:46:07;;;;;;;;;;;4.40;68.70;;;;;;4955317;28;117470;-80
2021/01/12 02:48:32;;;;;;;;;;;4.40;68.80;;;;;;4956374;28;117550;-80
2021/01/12 02:50:58;;;;;;;;;;;4.40;68.70;;;;;;4957346;28;117807;-80
2021/01/12 02:53:23;;;;;;;;;;;4.40;68.80;;;;;;4955857;28;120726;-80
2021/01/12 02:55:49;;;;;;;;;;;4.40;68.70;;;;;;4956135;28;119394;-80
2021/01/12 02:58:14;;;;;;;;;;;4.40;68.80;;;;;;4957480;28;117395;-80
2021/01/12 03:00:40;;;;;;;;;;;4.40;68.80;;;;;;4957845;28;117974;-81
2021/01/12 03:03:05;;;;;;;;;;;4.40;68.80;;;;;;4957277;28;117305;-80
2021/01/12 03:05:31;;;;;;;;;;;4.40;68.80;;;;;;4957196;28;117398;-80
2021/01/12 03:07:57;;;;;;;;;;;4.40;68.80;;;;;;4957971;28;117440;-80
2021/01/12 03:10:22;;;;;;;;;;;4.40;68.80;;;;;;4957548;28;116891;-81
2021/01/12 03:12:48;;;;;;;;;;;4.40;68.80;;;;;;4957586;28;117824;-80
2021/01/12 03:15:13;;;;;;;;;;;4.40;68.80;;;;;;4957415;28;118067;-80
2021/01/12 03:17:39;;;;;;;;;;;4.40;69.40;;;;;;4975353;28;117539;-80
2021/01/12 03:20:05;;;;;;;;;;;4.40;68.80;;;;;;4958585;28;117381;-80
2021/01/12 03:22:30;;;;;;;;;;;4.40;68.80;;;;;;4957562;28;117566;-80
2021/01/12 03:24:56;;;;;;;;;;;4.40;68.80;;;;;;4958427;28;117434;-80
2021/01/12 03:27:21;;;;;;;;;;;4.40;68.80;;;;;;4959479;28;117637;-80
2021/01/12 03:29:47;;;;;;;;;;;4.40;68.90;;;;;;4959685;28;117908;-80
2021/01/12 03:32:12;;;;;;;;;;;4.40;68.80;;;;;;4958523;28;120489;-80
2021/01/12 03:34:38;;;;;;;;;;;4.40;68.80;;;;;;4973418;28;117964;-80
2021/01/12 03:37:03;;;;;;;;;;;4.40;68.80;;;;;;4954208;28;117335;-80
2021/01/12 03:39:29;;;;;;;;;;;4.40;69.40;;;;;;4955257;28;117940;-80
2021/01/12 03:41:54;;;;;;;;;;;4.40;68.80;;;;;;4954316;28;118895;-80
2021/01/12 03:44:20;;;;;;;;;;;4.40;68.80;;;;;;4953878;28;119714;-80
2021/01/12 03:46:46;;;;;;;;;;;4.40;68.90;;;;;;4955140;28;117367;-80
2021/01/12 03:49:11;;;;;;;;;;;4.40;68.90;;;;;;4955040;28;117261;-80
2021/01/12 03:51:37;;;;;;;;;;;4.40;68.90;;;;;;4954280;28;117511;-80
2021/01/12 03:54:02;;;;;;;;;;;4.40;68.80;;;;;;4954504;28;116875;-80
2021/01/12 03:56:28;;;;;;;;;;;4.40;68.80;;;;;;4955125;28;117601;-80
2021/01/12 03:58:53;;;;;;;;;;;4.40;68.80;;;;;;4954957;28;117917;-81
2021/01/12 04:01:19;;;;;;;;;;;4.40;68.80;;;;;;4954854;28;119499;-80
2021/01/12 04:03:44;;;;;;;;;;;4.40;68.90;;;;;;4971340;28;117548;-80
2021/01/12 04:06:14;;;;;;;;;;;4.40;68.90;;;;;;4955277;28;117407;-80
2021/01/12 04:08:43;;;;;;;;;;;4.40;68.90;;;;;;4956128;28;117313;-80
2021/01/12 04:11:08;;;;;;;;;;;4.40;68.90;;;;;;4954779;28;120502;-80
2021/01/12 04:13:34;;;;;;;;;;;4.40;68.90;;;;;;4971759;28;117937;-80
2021/01/12 04:16:00;;;;;;;;;;;4.40;68.90;;;;;;4956429;28;117562;-80
2021/01/12 04:18:26;;;;;;;;;;;4.40;68.90;;;;;;4957128;28;117600;-80
2021/01/12 04:20:51;;;;;;;;;;;4.40;68.90;;;;;;4955551;28;117444;-80
2021/01/12 04:23:17;;;;;;;;;;;4.40;68.90;;;;;;4954493;28;117506;-80
2021/01/12 04:25:42;;;;;;;;;;;4.40;68.90;;;;;;4956203;28;117867;-80
2021/01/12 04:28:08;;;;;;;;;;;4.40;68.90;;;;;;4973924;28;117862;-80
2021/01/12 04:30:33;;;;;;;;;;;4.40;68.90;;;;;;4955995;28;119220;-80
2021/01/12 04:32:59;;;;;;;;;;;4.40;68.90;;;;;;4956094;28;118061;-80
2021/01/12 04:35:24;;;;;;;;;;;4.40;68.90;;;;;;4957095;28;117491;-80
2021/01/12 04:37:50;;;;;;;;;;;4.40;69.00;;;;;;4957754;28;117774;-80
2021/01/12 04:40:15;;;;;;;;;;;4.40;69.00;;;;;;4956136;28;118844;-80
2021/01/12 04:42:42;;;;;;;;;;;4.40;69.00;;;;;;4956369;28;118522;-80
2021/01/12 04:45:07;;;;;;;;;;;4.40;69.00;;;;;;4973848;28;117663;-81
2021/01/12 04:47:33;;;;;;;;;;;4.40;69.00;;;;;;4957160;28;117710;-81
2021/01/12 04:50:02;;;;;;;;;;;4.40;69.00;;;;;;4954216;28;119629;-80
2021/01/12 04:52:28;;;;;;;;;;;4.40;69.00;;;;;;4969316;28;117556;-80
2021/01/12 04:54:53;;;;;;;;;;;4.40;69.00;;;;;;4953659;28;117577;-80
2021/01/12 04:57:19;;;;;;;;;;;4.40;69.10;;;;;;4954385;28;117316;-80
2021/01/12 04:59:45;;;;;;;;;;;4.40;69.10;;;;;;4952570;28;118728;-80
2021/01/12 05:02:13;;;;;;;;;;;4.40;69.10;;;;;;4952989;28;117787;-80
2021/01/12 05:04:42;;;;;;;;;;;4.40;69.10;;;;;;4954894;28;117808;-80
2021/01/12 05:07:08;;;;;;;;;;;4.40;69.10;;;;;;4954532;28;117464;-80
2021/01/12 05:09:33;;;;;;;;;;;4.40;69.20;;;;;;4970077;28;118496;-80
2021/01/12 05:11:59;;;;;;;;;;;4.40;69.20;;;;;;4952825;28;120383;-80
2021/01/12 05:14:25;;;;;;;;;;;4.40;69.30;;;;;;4954098;28;117474;-81
2021/01/12 05:16:54;;;;;;;;;;;4.40;69.30;;;;;;4955153;28;117757;-80
2021/01/12 05:19:26;;;;;;;;;;;4.40;69.30;;;;;;4953142;28;117795;-81
2021/01/12 05:21:52;;;;;;;;;;;4.40;69.30;;;;;;4953526;28;117233;-81
2021/01/12 05:24:18;;;;;;;;;;;4.40;69.30;;;;;;4971370;28;117314;-80
2021/01/12 05:26:44;;;;;;;;;;;4.40;69.40;;;;;;4954337;28;117523;-80
2021/01/12 05:29:10;;;;;;;;;;;4.40;69.40;;;;;;4953353;28;117609;-80
2021/01/12 05:31:36;;;;;;;;;;;4.40;69.40;;;;;;4953877;28;117568;-80
2021/01/12 05:34:02;;;;;;;;;;;4.40;69.40;;;;;;4954778;28;117508;-80
2021/01/12 05:36:28;;;;;;;;;;;4.40;69.40;;;;;;4958234;28;117574;-81
2021/01/12 05:38:53;;;;;;;;;;;4.40;69.50;;;;;;4974536;28;117553;-82
2021/01/12 05:41:19;;;;;;;;;;;4.40;69.50;;;;;;4958473;28;118165;-80
2021/01/12 05:43:44;;;;;;;;;;;4.40;70.10;;;;;;4959171;28;117528;-80
2021/01/12 05:46:10;;;;;;;;;;;4.40;69.60;;;;;;4960030;28;117826;-80
2021/01/12 05:48:36;;;;;;;;;;;4.40;69.50;;;;;;4957754;28;119504;-79
2021/01/12 05:51:03;;;;;;;;;;;4.40;69.60;;;;;;4958160;28;118059;-81
2021/01/12 05:53:32;;;;;;;;;;;4.40;69.60;;;;;;4959554;28;117288;-81
2021/01/12 05:55:58;;;;;;;;;;;4.40;69.60;;;;;;4959771;28;117858;-81
2021/01/12 05:58:30;;;;;;;;;;;4.40;69.70;;;;;;4958880;28;117655;-81
2021/01/12 06:00:55;;;;;;;;;;;4.40;69.60;;;;;;4957910;28;117665;-81
2021/01/12 06:03:21;;;;;;;;;;;4.40;69.70;;;;;;4975613;28;117966;-81
2021/01/12 06:05:46;;;;;;;;;;;4.40;69.70;;;;;;4956439;28;117431;-81
2021/01/12 06:08:12;;;;;;;;;;;4.40;70.30;;;;;;4955340;28;120488;-81
2021/01/12 06:10:39;;;;;;;;;;;4.40;69.80;;;;;;4954678;28;118908;-80
2021/01/12 06:13:04;;;;;;;;;;;4.40;69.80;;;;;;4972826;28;117377;-80
2021/01/12 06:15:30;;;;;;;;;;;4.40;69.80;;;;;;4956895;28;117719;-80
2021/01/12 06:18:00;;;;;;;;;;;4.40;69.80;;;;;;4955664;28;117458;-81
2021/01/12 06:20:26;;;;;;;;;;;4.40;69.80;;;;;;4971701;28;117879;-81
2021/01/12 06:22:51;;;;;;;;;;;4.40;69.90;;;;;;4973139;28;117508;-81
2021/01/12 06:25:17;;;;;;;;;;;4.40;69.90;;;;;;4972605;28;117764;-81
2021/01/12 06:27:43;;;;;;;;;;;4.40;69.90;;;;;;4955470;28;118939;-81
2021/01/12 06:30:10;;;;;;;;;;;4.40;69.90;;;;;;4955168;28;116959;-81
2021/01/12 06:32:35;;;;;;;;;;;4.40;70.00;;;;;;4956749;28;117587;-81
2021/01/12 06:35:04;;;;;;;;;;;4.40;69.90;;;;;;4956676;28;117363;-81
2021/01/12 06:37:32;;;;;;;;;;;4.40;70.00;;;;;;4971231;28;117879;-81
2021/01/12 06:39:59;;;;;;;;;;;4.40;70.00;;;;;;4954924;28;117559;-81
2021/01/12 06:42:26;;;;;;;;;;;4.40;70.00;;;;;;4955996;28;116804;-81
2021/01/12 06:44:52;;;;;;;;;;;4.40;70.00;;;;;;4972758;28;117432;-81
2021/01/12 06:47:21;;;;;;;;;;;4.40;70.60;;;;;;4954993;28;120618;-81
2021/01/12 06:49:47;;;;;;;;;;;4.40;70.10;;;;;;4954502;28;117720;-81
2021/01/12 06:52:13;;;;;;;;;;;4.40;70.10;;;;;;4956020;28;117649;-81
2021/01/12 06:54:38;;;;;;;;;;;4.40;70.10;;;;;;4956783;28;117896;-81
2021/01/12 06:57:05;;;;;;;;;;;4.50;70.20;;;;;;4972536;28;120668;-81
2021/01/12 06:59:33;;;;;;;;;;;4.40;70.10;;;;;;4973629;28;117951;-81
2021/01/12 07:01:59;;;;;;;;;;;4.40;70.20;;;;;;4974841;28;117866;-81
2021/01/12 07:04:27;;;;;;;;;;;4.40;70.20;;;;;;4958742;28;117556;-81
2021/01/12 07:06:55;;;;;;;;;;;4.40;70.20;;;;;;4991509;28;117523;-81
2021/01/12 07:09:20;;;;;;;;;;;4.40;70.20;;;;;;4958356;28;117402;-81
2021/01/12 07:11:46;;;;;;;;;;;4.40;71.60;;;;;;4959807;28;117263;-81
2021/01/12 07:14:11;;;;;;;;;;;4.40;71.10;;;;;;4976920;28;117321;-81
2021/01/12 07:16:37;;;;;;;;;;;4.40;70.90;;;;;;4959641;28;119154;-80
2021/01/12 07:19:02;;;;;;;;;;;4.40;70.80;;;;;;4953702;28;118773;-81
2021/01/12 07:21:31;;;;;;;;;;;4.40;70.80;;;;;;4954601;28;117374;-82
2021/01/12 07:24:00;;;;;;;;;;;4.40;70.70;;;;;;4955465;28;117499;-81
2021/01/12 07:26:25;;;;;;;;;;;4.40;70.70;;;;;;4954271;28;120460;-81
2021/01/12 07:28:52;;;;;;;;;;;4.40;70.80;;;;;;4953963;28;118817;-81
2021/01/12 07:31:26;;;;;;;;;;;4.40;70.70;;;;;;4954918;28;117776;-81
2021/01/12 07:33:51;;;;;;;;;;;4.40;70.80;;;;;;4955552;28;117810;-81
2021/01/12 07:36:17;;;;;;;;;;;4.40;70.80;;;;;;4969701;28;118690;-81
2021/01/12 07:38:43;;;;;;;;;;;4.40;70.80;;;;;;4953730;28;117481;-81
2021/01/12 07:41:08;;;;;;;;;;;4.40;71.30;;;;;;4971658;28;117737;-80
2021/01/12 07:43:34;;;;;;;;;;;4.40;70.80;;;;;;4956083;28;117256;-80
2021/01/12 07:46:01;;;;;;;;;;;4.40;70.80;;;;;;4970578;28;117628;-81
2021/01/12 07:48:26;;;;;;;;;;;4.50;70.90;;;;;;4954610;28;117949;-81
2021/01/12 07:50:52;;;;;;;;;;;4.40;70.80;;;;;;4955292;28;117483;-81
2021/01/12 07:53:18;;;;;;;;;;;4.50;70.90;;;;;;4956099;28;117465;-81
2021/01/12 07:55:44;;;;;;;;;;;4.50;70.90;;;;;;4955169;28;117553;-81
2021/01/12 07:58:10;;;;;;;;;;;4.50;70.90;;;;;;4970763;28;117836;-81
2021/01/12 08:00:35;;;;;;;;;;;4.50;71.00;;;;;;4956636;28;117383;-81
2021/01/12 08:03:01;;;;;;;;;;;4.40;70.90;;;;;;4956482;28;117625;-81
2021/01/12 08:05:27;;;;;;;;;;;4.50;71.00;;;;;;4956622;28;119148;-81
2021/01/12 08:08:08;;;;;;;;;;;4.50;71.00;;;;;;4956433;28;118061;-81
2021/01/12 08:10:35;;;;;;;;;;;4.50;71.00;;;;;;4957439;28;117476;-81
2021/01/12 08:13:13;;;;;;;;;;;4.50;71.00;;;;;;4975636;28;117252;-81
2021/01/12 08:15:40;;;;;;;;;;;4.40;71.10;;;;;;4956978;28;120915;-81
2021/01/12 08:18:15;;;;;;;;;;;4.40;71.30;;;;;;4957551;28;119794;-81
2021/01/12 08:20:41;;;;;;;;;;;4.40;71.30;;;;;;4958925;28;117570;-81
2021/01/12 08:23:06;;;;;;;;;;;4.50;71.30;;;;;;4959780;28;116903;-81
2021/01/12 08:25:33;;;;;;;;;;;4.40;71.30;;;;;;4959218;28;119606;-81
2021/01/12 08:27:59;;;;;;;;;;;4.40;71.50;;;;;;4958586;28;118705;-81
2021/01/12 08:30:26;;;;;;;;;;;4.40;71.80;;;;;;4960244;28;117443;-81
2021/01/12 08:33:12;;;;;;;;;;;4.40;71.80;;;;;;4970982;28;117733;-81
2021/01/12 08:35:38;;;;;;;;;;;4.40;71.90;;;;;;4968858;28;117404;-81
2021/01/12 08:38:05;;;;;;;;;;;4.40;71.90;;;;;;4953381;28;117689;-81
2021/01/12 08:40:31;;;;;;;;;;;4.40;72.00;;;;;;4970473;28;117611;-81
2021/01/12 08:42:57;;;;;;;;;;;4.40;71.90;;;;;;4955502;28;117451;-81
2021/01/12 08:45:22;;;;;;;;;;;4.40;71.90;;;;;;4954376;28;120398;-81
2021/01/12 08:47:48;;;;;;;;;;;4.40;72.10;;;;;;4969862;28;117530;-81
2021/01/12 08:50:13;;;;;;;;;;;4.40;72.00;;;;;;4953733;28;117655;-81
2021/01/12 08:52:40;;;;;;;;;;;4.40;72.30;;;;;;4953964;28;117816;-81
2021/01/12 08:55:14;;;;;;;;;;;4.40;72.30;;;;;;4954094;28;117308;-81
2021/01/12 08:57:40;;;;;;;;;;;4.40;72.40;;;;;;4954388;28;117940;-81
2021/01/12 09:00:12;;;;;;;;;;;4.40;73.10;;;;;;4954642;28;117589;-81
2021/01/12 09:02:37;;;;;;;;;;;4.40;72.60;;;;;;4955089;28;117758;-81
2021/01/12 09:05:03;;;;;;;;;;;4.40;72.60;;;;;;4954302;28;118541;-81
2021/01/12 09:07:32;;;;;;;;;;;4.40;72.40;;;;;;4971525;28;118063;-81
2021/01/12 09:09:57;;;;;;;;;;;4.40;72.30;;;;;;4958533;28;117427;-80
2021/01/12 09:12:23;;;;;;;;;;;4.40;72.30;;;;;;4959023;28;117300;-81
2021/01/12 09:14:49;;;;;;;;;;;4.40;72.30;;;;;;4975428;28;117575;-81
2021/01/12 09:17:18;;;;;;;;;;;4.40;72.20;;;;;;4958964;28;118541;-81
2021/01/12 09:19:47;;;;;;;;;;;4.40;72.30;;;;;;4960099;28;117810;-81
2021/01/12 09:22:16;;;;;;;;;;;4.40;72.50;;;;;;4961510;28;117296;-81
2021/01/12 09:24:48;;;;;;;;;;;4.40;72.30;;;;;;4976667;28;117498;-81
2021/01/12 09:27:18;;;;;;;;;;;4.40;72.40;;;;;;4960501;28;119220;-81
2021/01/12 09:29:43;;;;;;;;;;;4.40;72.40;;;;;;4961095;28;117565;-81
2021/01/12 09:32:11;;;;;;;;;;;4.40;72.50;;;;;;4962096;28;117566;-81
2021/01/12 09:34:37;;;;;;;;;;;4.40;72.40;;;;;;4978193;28;117368;-81
2021/01/12 09:37:13;;;;;;;;;;;4.40;72.50;;;;;;4961087;28;117407;-81
2021/01/12 09:39:39;;;;;;;;;;;4.40;72.50;;;;;;4962484;28;117554;-81
2021/01/12 09:42:04;;;;;;;;;;;4.40;72.40;;;;;;4980100;28;117246;-81
2021/01/12 09:44:30;;;;;;;;;;;4.40;72.50;;;;;;4961190;28;121060;-81
2021/01/12 09:47:00;;;;;;;;;;;4.40;72.50;;;;;;4955677;28;117936;-81
2021/01/12 09:49:25;;;;;;;;;;;4.40;72.50;;;;;;4956196;28;117551;-81
2021/01/12 09:51:51;;;;;;;;;;;4.40;72.70;;;;;;4956733;28;118020;-81
2021/01/12 09:54:16;;;;;;;;;;;4.40;72.50;;;;;;4955644;28;118380;-81
2021/01/12 09:56:42;;;;;;;;;;;4.40;72.50;;;;;;4955754;28;119979;-81
2021/01/12 09:59:07;;;;;;;;;;;4.40;72.70;;;;;;4957115;28;117312;-81
2021/01/12 10:01:32;;;;;;;;;;;4.40;72.70;;;;;;4957208;28;117441;-81
2021/01/12 10:03:58;;;;;;;;;;;4.40;72.80;;;;;;4956794;28;119405;-81
2021/01/12 10:06:27;;;;;;;;;;;4.40;73.00;;;;;;4955520;28;117437;-81
2021/01/12 10:08:53;;;;;;;;;;;4.40;73.10;;;;;;4957607;28;117625;-81
2021/01/12 10:11:20;;;;;;;;;;;4.40;73.00;;;;;;4957961;28;117483;-81
2021/01/12 10:13:46;;;;;;;;;;;4.40;73.10;;;;;;4957083;28;117771;-81
2021/01/12 10:16:19;;;;;;;;;;;4.40;73.20;;;;;;4957344;28;118515;-81
2021/01/12 10:18:45;;;;;;;;;;;4.40;73.20;;;;;;4958247;28;117725;-81
2021/01/12 10:21:10;;;;;;;;;;;4.40;73.40;;;;;;4958209;28;117328;-81
2021/01/12 10:23:36;;;;;;;;;;;4.40;73.30;;;;;;4957656;28;119092;-81
2021/01/12 10:26:01;;;;;;;;;;;4.40;73.20;;;;;;4958399;28;117162;-81
2021/01/12 10:28:27;;;;;;;;;;;4.40;73.30;;;;;;4958941;28;117556;-81
2021/01/12 10:30:52;;;;;;;;;;;4.40;73.30;;;;;;4959284;28;117328;-81
2021/01/12 10:33:18;;;;;;;;;;;4.40;73.60;;;;;;4958955;28;119492;-81
2021/01/12 10:35:43;;;;;;;;;;;4.40;73.60;;;;;;4958406;28;117746;-81
2021/01/12 10:38:09;;;;;;;;;;;4.40;73.60;;;;;;4960045;28;117351;-81
2021/01/12 10:40:34;;;;;;;;;;;4.40;73.40;;;;;;4977049;28;117292;-81
2021/01/12 10:43:00;;;;;;;;;;;4.40;73.30;;;;;;4959977;28;117596;-81
2021/01/12 10:45:27;;;;;;;;;;;4.40;73.90;;;;;;4959998;28;118529;-81
2021/01/12 10:47:52;;;;;;;;;;;4.40;73.50;;;;;;4961383;28;117540;-81
2021/01/12 10:50:18;;;;;;;;;;;4.40;73.60;;;;;;4961342;28;117934;-81
2021/01/12 10:52:44;;;;;;;;;;;4.40;73.50;;;;;;4961385;28;120580;-81
2021/01/12 10:55:10;;;;;;;;;;;4.40;73.50;;;;;;4960929;28;118724;-81
2021/01/12 10:57:35;;;;;;;;;;;4.40;73.50;;;;;;4963282;28;116749;-80
2021/01/12 11:00:02;;;;;;;;;;;4.40;73.60;;;;;;4957278;28;117979;-81
2021/01/12 11:02:31;;;;;;;;;;;4.40;73.80;;;;;;4954718;28;117542;-80
2021/01/12 11:04:56;;;;;;;;;;;4.40;74.10;;;;;;4954742;28;119704;-80
2021/01/12 11:07:22;;;;;;;;;;;4.40;74.20;;;;;;4955687;28;117519;-81
2021/01/12 11:09:47;;;;;;;;;;;4.40;74.30;;;;;;4956168;28;116876;-81
2021/01/12 11:12:13;;;;;;;;;;;4.40;74.40;;;;;;4955724;28;120127;-81
2021/01/12 11:14:39;;;;;;;;;;;4.40;74.40;;;;;;4972064;28;118087;-81
2021/01/12 11:17:04;;;;;;;;;;;4.40;74.20;;;;;;4972812;28;117787;-81
2021/01/12 11:19:30;;;;;;;;;;;4.40;74.00;;;;;;4972189;28;117393;-80
2021/01/12 11:21:57;;;;;;;;;;;4.40;73.90;;;;;;4972353;28;117261;-81
2021/01/12 11:24:24;;;;;;;;;;;4.40;74.00;;;;;;4955933;28;117181;-81
2021/01/12 11:26:50;;;;;;;;;;;4.40;74.00;;;;;;4973469;28;117401;-81
2021/01/12 11:29:15;;;;;;;;;;;4.40;74.00;;;;;;4957191;28;117915;-81
2021/01/12 11:31:41;;;;;;;;;;;4.40;73.90;;;;;;4955943;28;118609;-81
2021/01/12 11:34:06;;;;;;;;;;;4.40;73.90;;;;;;4956097;28;117666;-81
2021/01/12 11:36:42;;;;;;;;;;;4.40;73.90;;;;;;4957740;28;117455;-81
2021/01/12 11:39:09;;;;;;;;;;;4.40;74.10;;;;;;4957775;28;117857;-81
2021/01/12 11:41:35;;;;;;;;;;;4.40;74.00;;;;;;4957146;28;119126;-81
2021/01/12 11:44:01;;;;;;;;;;;4.40;74.00;;;;;;4956775;28;118557;-81
2021/01/12 11:46:27;;;;;;;;;;;4.40;73.90;;;;;;4958281;28;116530;-81
2021/01/12 11:48:53;;;;;;;;;;;4.40;74.10;;;;;;4959293;28;117719;-80
2021/01/12 11:51:18;;;;;;;;;;;4.40;74.30;;;;;;4957787;28;117398;-81
2021/01/12 11:53:45;;;;;;;;;;;4.40;74.40;;;;;;4975381;28;117415;-81
2021/01/12 11:56:11;;;;;;;;;;;4.40;74.40;;;;;;4976255;28;117579;-80
2021/01/12 11:58:36;;;;;;;;;;;4.40;74.60;;;;;;4960288;28;117427;-80
2021/01/12 12:01:02;;;;;;;;;;;4.40;74.50;;;;;;4959717;28;118690;-81
2021/01/12 12:03:27;;;;;;;;;;;4.40;74.30;;;;;;4960247;28;117459;-81
2021/01/12 12:05:53;;;;;;;;;;;4.40;74.30;;;;;;4960121;28;117479;-81
2021/01/12 12:08:19;;;;;;;;;;;4.40;74.60;;;;;;4961055;28;117978;-81
2021/01/12 12:10:44;;;;;;;;;;;4.40;74.50;;;;;;4959902;28;119189;-80
2021/01/12 12:13:10;;;;;;;;;;;4.40;74.40;;;;;;4955386;28;117541;-80
2021/01/12 12:15:35;;;;;;;;;;;4.40;74.80;;;;;;4954716;28;117300;-80
2021/01/12 12:18:01;;;;;;;;;;;4.40;74.70;;;;;;4954844;28;117394;-80
2021/01/12 12:20:26;;;;;;;;;;;4.40;75.10;;;;;;4953991;28;120423;-80
2021/01/12 12:22:52;;;;;;;;;;;4.40;75.00;;;;;;4970401;28;117557;-81
2021/01/12 12:25:17;;;;;;;;;;;4.40;74.90;;;;;;4971928;28;117357;-81
2021/01/12 12:27:43;;;;;;;;;;;4.40;74.80;;;;;;4955455;28;117379;-81
2021/01/12 12:30:09;;;;;;;;;;;4.40;74.60;;;;;;4954359;28;117520;-81
2021/01/12 12:32:34;;;;;;;;;;;4.40;75.20;;;;;;4953439;28;117742;-80
2021/01/12 12:35:00;;;;;;;;;;;4.40;74.50;;;;;;4955266;28;117568;-80
2021/01/12 12:37:25;;;;;;;;;;;4.40;74.30;;;;;;4955055;28;117883;-80
2021/01/12 12:39:51;;;;;;;;;;;4.40;74.50;;;;;;4954277;28;119487;-81
2021/01/12 12:42:16;;;;;;;;;;;4.40;74.60;;;;;;4955070;28;117496;-81
2021/01/12 12:44:42;;;;;;;;;;;4.40;74.40;;;;;;4955265;28;117956;-81
2021/01/12 12:47:11;;;;;;;;;;;4.50;74.20;;;;;;4973304;28;117526;-81
2021/01/12 12:49:37;;;;;;;;;;;4.50;74.20;;;;;;4955329;28;117552;-81
2021/01/12 12:52:02;;;;;;;;;;;4.50;74.30;;;;;;4955711;28;117665;-81
2021/01/12 12:54:28;;;;;;;;;;;4.40;74.40;;;;;;4956503;28;117475;-81
2021/01/12 12:56:54;;;;;;;;;;;4.50;74.40;;;;;;4956879;28;117901;-81
2021/01/12 12:59:20;;;;;;;;;;;4.50;74.60;;;;;;4957142;28;120644;-81
2021/01/12 13:01:46;;;;;;;;;;;4.40;74.50;;;;;;4957380;28;119915;-81
2021/01/12 13:04:11;;;;;;;;;;;4.40;74.80;;;;;;4958448;28;117463;-81
2021/01/12 13:06:37;;;;;;;;;;;4.40;74.80;;;;;;4958974;28;117948;-81
2021/01/12 13:09:03;;;;;;;;;;;4.40;74.50;;;;;;4957278;28;118718;-81
2021/01/12 13:11:29;;;;;;;;;;;4.40;74.50;;;;;;4957904;28;117847;-81
2021/01/12 13:13:55;;;;;;;;;;;4.50;74.50;;;;;;4959182;28;117601;-81
2021/01/12 13:16:22;;;;;;;;;;;4.40;74.90;;;;;;4960375;28;117292;-81
2021/01/12 13:18:49;;;;;;;;;;;4.40;74.70;;;;;;4975554;28;117546;-81
2021/01/12 13:21:15;;;;;;;;;;;4.40;74.80;;;;;;4958982;28;118245;-80
2021/01/12 13:23:40;;;;;;;;;;;4.40;74.70;;;;;;4961746;28;117606;-81
2021/01/12 13:26:06;;;;;;;;;;;4.40;74.70;;;;;;4963593;28;117518;-80
2021/01/12 13:28:32;;;;;;;;;;;4.50;74.60;;;;;;4953418;28;117715;-81
2021/01/12 13:30:58;;;;;;;;;;;4.40;74.60;;;;;;4969540;28;117476;-82
2021/01/12 13:33:24;;;;;;;;;;;4.40;75.10;;;;;;4953267;28;117635;-82
2021/01/12 13:35:50;;;;;;;;;;;4.40;75.20;;;;;;4954398;28;117783;-81
2021/01/12 13:38:15;;;;;;;;;;;4.40;75.50;;;;;;4953459;28;118341;-81
2021/01/12 13:40:41;;;;;;;;;;;4.40;75.20;;;;;;4969927;28;117755;-81
2021/01/12 13:43:06;;;;;;;;;;;4.40;75.30;;;;;;4953896;28;117320;-81
2021/01/12 13:45:35;;;;;;;;;;;4.40;75.40;;;;;;4954935;28;117857;-81
2021/01/12 13:48:01;;;;;;;;;;;4.40;75.10;;;;;;4953648;28;119214;-81
2021/01/12 13:50:27;;;;;;;;;;;4.40;75.00;;;;;;4954237;28;119639;-81
2021/01/12 13:52:52;;;;;;;;;;;4.40;75.20;;;;;;4955395;28;117679;-81
2021/01/12 13:55:18;;;;;;;;;;;4.40;75.20;;;;;;4973749;28;117848;-81
2021/01/12 13:57:49;;;;;;;;;;;4.40;75.20;;;;;;4958116;28;117575;-81
2021/01/12 14:00:15;;;;;;;;;;;4.40;75.30;;;;;;4957685;28;118505;-81
2021/01/12 14:02:40;;;;;;;;;;;4.40;75.20;;;;;;4959260;28;117474;-81
2021/01/12 14:05:06;;;;;;;;;;;4.40;75.50;;;;;;4959806;28;117862;-81
2021/01/12 14:07:32;;;;;;;;;;;4.40;75.30;;;;;;4958823;28;119347;-81
2021/01/12 14:09:57;;;;;;;;;;;4.40;75.30;;;;;;4958526;28;118747;-81